Lake Clark National Park, AK

4:13 AM AKDT on October 31, 2014 (GMT -0800)
Sparrevohn | Change Station
CLOSE
Current Station
Airport
Location: Sparrevohn,
Elevation: 1588 ft
Nearby Weather Stations

Elev 1588 ft 61.10 °N, 155.57 °W | Updated 18 minutes ago

Light Snow
Light Snow
5 °F
Feels Like 5 °F
N
0
Wind Variable Wind from North

Today
High -- | Low -- °F
--% Chance of Precip.
Yesterday
High -- | Low -- °F
Precip. -- in
9:40 AM 6:22 PM
First Quarter, 54% visible
Pressure 29.41 in
Visibility 10.0 miles
Clouds Mostly Cloudy 1200 ft
Dew Point 3 °F
Humidity 92%
Rainfall 0.00 in
Snow Depth Not available.
UV 0 out of 12
Pollen Not available.
Air Quality Not available.
Flu Activity Not available.
METAR PASV 311155Z AUTO 00000KT 10SM -SN BKN012 M15/M16 A2927 RMK AO2 LTG DSNT NE SNB1055 SLP959 P0000 60000 T11511161 11110 21133 57034

More Conditions Fewer Conditions

Pressure 29.41 in
Visibility 10.0 miles
Clouds Mostly Cloudy 1200 ft
Dew Point 3 °F
Humidity 92%
Rainfall 0.00 in
Snow Depth Not available.
UV 0 out of 12
Pollen Not available.
Air Quality Not available.
Flu Activity Not available.
METAR PASV 311155Z AUTO 00000KT 10SM -SN BKN012 M15/M16 A2927 RMK AO2 LTG DSNT NE SNB1055 SLP959 P0000 60000 T11511161 11110 21133 57034

More Conditions Fewer Conditions

10-Day Weather Forecast

Almanac

Astronomy

Oct. 31, 2014 Rise Set
Actual Time
Civil Twilight
Nautical Twilight
Astronomical Twilight
Moon
Length of Visible Light
Length of Day
Tomorrow will be .
, % of the Moon is Illuminated

Today's Extremes

State Highs State Lows

Community

WunderPhotos

Upload Photos

1,766,589 photos uploaded!

WunderBlogs® & News

Nearby

Air Quality

  Air Quality AQ Index Pollutant
Not available.

Snow Depth

Station Depth Elevation

Earthquake Activity

City Distance Mag. Time & Date
Minimum magnitude displayed is 2.5.

Coastal Water Temperatures

Place Temperature

Nearby Weather Stations